<?xml version="1.0" encoding="UTF-8" standalone="no" ?>
<gpx xmlns="http://www.topografix.com/GPX/1/1" xmlns:xsi="http://www.w3.org/2001/XMLSchema-instance" xsi:schemaLocation="http://www.topografix.com/GPX/1/1 http://www.topografix.com/GPX/1/1/gpx.xsd" version="1.1" creator="VisuGPX - https://www.visugpx.com">
  <metadata>
    <name>Les balades du confinement</name>
  </metadata>
  <trk>
    <name><![CDATA[28 mars]]></name>
    <trkseg>
      <trkpt lat="43.55025" lon="1.47672">
        <ele>216.232</ele>
        <time>2020-03-28T16:31:24Z</time>
      </trkpt>
      <trkpt lat="43.55023" lon="1.47675">
        <ele>209.199</ele>
        <time>2020-03-28T16:31:29Z</time>
      </trkpt>
      <trkpt lat="43.55021" lon="1.47677">
        <ele>209.543</ele>
        <time>2020-03-28T16:31:34Z</time>
      </trkpt>
      <trkpt lat="43.55015" lon="1.4768">
        <ele>210.772</ele>
        <time>2020-03-28T16:31:39Z</time>
      </trkpt>
      <trkpt lat="43.55007" lon="1.47682">
        <ele>209.672</ele>
        <time>2020-03-28T16:31:45Z</time>
      </trkpt>
      <trkpt lat="43.55005" lon="1.47682">
        <ele>210.301</ele>
        <time>2020-03-28T16:31:51Z</time>
      </trkpt>
      <trkpt lat="43.55" lon="1.47686">
        <ele>210.329</ele>
        <time>2020-03-28T16:31:56Z</time>
      </trkpt>
      <trkpt lat="43.54993" lon="1.47691">
        <ele>210.256</ele>
        <time>2020-03-28T16:32:02Z</time>
      </trkpt>
      <trkpt lat="43.54988" lon="1.47694">
        <ele>210.174</ele>
        <time>2020-03-28T16:32:08Z</time>
      </trkpt>
      <trkpt lat="43.54984" lon="1.47699">
        <ele>210.12</ele>
        <time>2020-03-28T16:32:13Z</time>
      </trkpt>
      <trkpt lat="43.54978" lon="1.47703">
        <ele>210.042</ele>
        <time>2020-03-28T16:32:19Z</time>
      </trkpt>
      <trkpt lat="43.54972" lon="1.47706">
        <ele>209.953</ele>
        <time>2020-03-28T16:32:24Z</time>
      </trkpt>
      <trkpt lat="43.54968" lon="1.47708">
        <ele>209.859</ele>
        <time>2020-03-28T16:32:29Z</time>
      </trkpt>
      <trkpt lat="43.54961" lon="1.47711">
        <ele>209.74</ele>
        <time>2020-03-28T16:32:35Z</time>
      </trkpt>
      <trkpt lat="43.54956" lon="1.47714">
        <ele>209.614</ele>
        <time>2020-03-28T16:32:41Z</time>
      </trkpt>
      <trkpt lat="43.54951" lon="1.47719">
        <ele>209.52</ele>
        <time>2020-03-28T16:32:46Z</time>
      </trkpt>
      <trkpt lat="43.54945" lon="1.47722">
        <ele>209.405</ele>
        <time>2020-03-28T16:32:52Z</time>
      </trkpt>
      <trkpt lat="43.54937" lon="1.47726">
        <ele>209.249</ele>
        <time>2020-03-28T16:32:58Z</time>
      </trkpt>
      <trkpt lat="43.5493" lon="1.4773">
        <ele>209.119</ele>
        <time>2020-03-28T16:33:03Z</time>
      </trkpt>
      <trkpt lat="43.54923" lon="1.47734">
        <ele>208.995</ele>
        <time>2020-03-28T16:33:09Z</time>
      </trkpt>
      <trkpt lat="43.54918" lon="1.47737">
        <ele>208.896</ele>
        <time>2020-03-28T16:33:14Z</time>
      </trkpt>
      <trkpt lat="43.54911" lon="1.47742">
        <ele>208.756</ele>
        <time>2020-03-28T16:33:20Z</time>
      </trkpt>
      <trkpt lat="43.54904" lon="1.47746">
        <ele>208.624</ele>
        <time>2020-03-28T16:33:26Z</time>
      </trkpt>
      <trkpt lat="43.54895" lon="1.4775">
        <ele>208.526</ele>
        <time>2020-03-28T16:33:32Z</time>
      </trkpt>
      <trkpt lat="43.54886" lon="1.47756">
        <ele>208.458</ele>
        <time>2020-03-28T16:33:38Z</time>
      </trkpt>
      <trkpt lat="43.54881" lon="1.4776">
        <ele>208.402</ele>
        <time>2020-03-28T16:33:43Z</time>
      </trkpt>
      <trkpt lat="43.54878" lon="1.47762">
        <ele>208.342</ele>
        <time>2020-03-28T16:33:48Z</time>
      </trkpt>
      <trkpt lat="43.54874" lon="1.47764">
        <ele>208.301</ele>
        <time>2020-03-28T16:33:53Z</time>
      </trkpt>
      <trkpt lat="43.54867" lon="1.47766">
        <ele>208.269</ele>
        <time>2020-03-28T16:33:59Z</time>
      </trkpt>
      <trkpt lat="43.54863" lon="1.47767">
        <ele>208.252</ele>
        <time>2020-03-28T16:34:04Z</time>
      </trkpt>
      <trkpt lat="43.54858" lon="1.47772">
        <ele>208.238</ele>
        <time>2020-03-28T16:34:10Z</time>
      </trkpt>
      <trkpt lat="43.54853" lon="1.47775">
        <ele>208.236</ele>
        <time>2020-03-28T16:34:15Z</time>
      </trkpt>
      <trkpt lat="43.54848" lon="1.47777">
        <ele>208.24</ele>
        <time>2020-03-28T16:34:21Z</time>
      </trkpt>
      <trkpt lat="43.54843" lon="1.47779">
        <ele>208.239</ele>
        <time>2020-03-28T16:34:26Z</time>
      </trkpt>
      <trkpt lat="43.54836" lon="1.47783">
        <ele>208.257</ele>
        <time>2020-03-28T16:34:32Z</time>
      </trkpt>
      <trkpt lat="43.54831" lon="1.47786">
        <ele>208.286</ele>
        <time>2020-03-28T16:34:37Z</time>
      </trkpt>
      <trkpt lat="43.54824" lon="1.47789">
        <ele>208.323</ele>
        <time>2020-03-28T16:34:42Z</time>
      </trkpt>
      <trkpt lat="43.54818" lon="1.47793">
        <ele>208.365</ele>
        <time>2020-03-28T16:34:48Z</time>
      </trkpt>
      <trkpt lat="43.54811" lon="1.47801">
        <ele>208.41</ele>
        <time>2020-03-28T16:34:53Z</time>
      </trkpt>
      <trkpt lat="43.54806" lon="1.47806">
        <ele>208.482</ele>
        <time>2020-03-28T16:34:59Z</time>
      </trkpt>
      <trkpt lat="43.54803" lon="1.47805">
        <ele>208.565</ele>
        <time>2020-03-28T16:35:05Z</time>
      </trkpt>
      <trkpt lat="43.54798" lon="1.4781">
        <ele>208.654</ele>
        <time>2020-03-28T16:35:10Z</time>
      </trkpt>
      <trkpt lat="43.54792" lon="1.47814">
        <ele>208.737</ele>
        <time>2020-03-28T16:35:16Z</time>
      </trkpt>
      <trkpt lat="43.54785" lon="1.47824">
        <ele>208.796</ele>
        <time>2020-03-28T16:35:22Z</time>
      </trkpt>
      <trkpt lat="43.54782" lon="1.47831">
        <ele>208.85</ele>
        <time>2020-03-28T16:35:27Z</time>
      </trkpt>
      <trkpt lat="43.54777" lon="1.47837">
        <ele>208.9</ele>
        <time>2020-03-28T16:35:33Z</time>
      </trkpt>
      <trkpt lat="43.54771" lon="1.47842">
        <ele>208.945</ele>
        <time>2020-03-28T16:35:39Z</time>
      </trkpt>
      <trkpt lat="43.54766" lon="1.47845">
        <ele>209.002</ele>
        <time>2020-03-28T16:35:44Z</time>
      </trkpt>
      <trkpt lat="43.54762" lon="1.47848">
        <ele>209.05</ele>
        <time>2020-03-28T16:35:49Z</time>
      </trkpt>
      <trkpt lat="43.54758" lon="1.47854">
        <ele>209.093</ele>
        <time>2020-03-28T16:35:55Z</time>
      </trkpt>
      <trkpt lat="43.54754" lon="1.47865">
        <ele>209.122</ele>
        <time>2020-03-28T16:36:01Z</time>
      </trkpt>
      <trkpt lat="43.54752" lon="1.47872">
        <ele>209.148</ele>
        <time>2020-03-28T16:36:06Z</time>
      </trkpt>
      <trkpt lat="43.54752" lon="1.47886">
        <ele>209.184</ele>
        <time>2020-03-28T16:36:12Z</time>
      </trkpt>
      <trkpt lat="43.54756" lon="1.47897">
        <ele>209.235</ele>
        <time>2020-03-28T16:36:18Z</time>
      </trkpt>
      <trkpt lat="43.54759" lon="1.47907">
        <ele>209.293</ele>
        <time>2020-03-28T16:36:24Z</time>
      </trkpt>
      <trkpt lat="43.54762" lon="1.47914">
        <ele>209.34</ele>
        <time>2020-03-28T16:36:29Z</time>
      </trkpt>
      <trkpt lat="43.54764" lon="1.47919">
        <ele>209.387</ele>
        <time>2020-03-28T16:36:35Z</time>
      </trkpt>
      <trkpt lat="43.54767" lon="1.47927">
        <ele>209.417</ele>
        <time>2020-03-28T16:36:41Z</time>
      </trkpt>
      <trkpt lat="43.54769" lon="1.47936">
        <ele>209.436</ele>
        <time>2020-03-28T16:36:47Z</time>
      </trkpt>
      <trkpt lat="43.54771" lon="1.47944">
        <ele>209.437</ele>
        <time>2020-03-28T16:36:53Z</time>
      </trkpt>
      <trkpt lat="43.54775" lon="1.47951">
        <ele>209.43</ele>
        <time>2020-03-28T16:36:58Z</time>
      </trkpt>
      <trkpt lat="43.54779" lon="1.4796">
        <ele>209.424</ele>
        <time>2020-03-28T16:37:04Z</time>
      </trkpt>
      <trkpt lat="43.54782" lon="1.47966">
        <ele>209.413</ele>
        <time>2020-03-28T16:37:09Z</time>
      </trkpt>
      <trkpt lat="43.54786" lon="1.47975">
        <ele>209.368</ele>
        <time>2020-03-28T16:37:15Z</time>
      </trkpt>
      <trkpt lat="43.54789" lon="1.47983">
        <ele>209.307</ele>
        <time>2020-03-28T16:37:20Z</time>
      </trkpt>
      <trkpt lat="43.54791" lon="1.47991">
        <ele>209.226</ele>
        <time>2020-03-28T16:37:26Z</time>
      </trkpt>
      <trkpt lat="43.54795" lon="1.48">
        <ele>209.149</ele>
        <time>2020-03-28T16:37:32Z</time>
      </trkpt>
      <trkpt lat="43.54799" lon="1.48007">
        <ele>209.08</ele>
        <time>2020-03-28T16:37:38Z</time>
      </trkpt>
      <trkpt lat="43.54801" lon="1.48015">
        <ele>209.031</ele>
        <time>2020-03-28T16:37:43Z</time>
      </trkpt>
      <trkpt lat="43.54803" lon="1.48023">
        <ele>208.988</ele>
        <time>2020-03-28T16:37:48Z</time>
      </trkpt>
      <trkpt lat="43.54806" lon="1.48032">
        <ele>208.934</ele>
        <time>2020-03-28T16:37:54Z</time>
      </trkpt>
      <trkpt lat="43.54809" lon="1.48038">
        <ele>208.891</ele>
        <time>2020-03-28T16:38:00Z</time>
      </trkpt>
      <trkpt lat="43.54812" lon="1.48044">
        <ele>208.87</ele>
        <time>2020-03-28T16:38:05Z</time>
      </trkpt>
      <trkpt lat="43.54814" lon="1.48052">
        <ele>208.849</ele>
        <time>2020-03-28T16:38:10Z</time>
      </trkpt>
      <trkpt lat="43.54817" lon="1.48061">
        <ele>208.823</ele>
        <time>2020-03-28T16:38:16Z</time>
      </trkpt>
      <trkpt lat="43.5482" lon="1.48069">
        <ele>208.804</ele>
        <time>2020-03-28T16:38:21Z</time>
      </trkpt>
      <trkpt lat="43.54823" lon="1.48078">
        <ele>208.781</ele>
        <time>2020-03-28T16:38:27Z</time>
      </trkpt>
      <trkpt lat="43.54824" lon="1.48086">
        <ele>208.755</ele>
        <time>2020-03-28T16:38:33Z</time>
      </trkpt>
      <trkpt lat="43.54827" lon="1.48094">
        <ele>208.723</ele>
        <time>2020-03-28T16:38:39Z</time>
      </trkpt>
      <trkpt lat="43.5483" lon="1.48102">
        <ele>208.694</ele>
        <time>2020-03-28T16:38:44Z</time>
      </trkpt>
      <trkpt lat="43.54832" lon="1.48113">
        <ele>208.664</ele>
        <time>2020-03-28T16:38:50Z</time>
      </trkpt>
      <trkpt lat="43.54836" lon="1.4812">
        <ele>208.629</ele>
        <time>2020-03-28T16:38:56Z</time>
      </trkpt>
      <trkpt lat="43.54838" lon="1.48128">
        <ele>208.595</ele>
        <time>2020-03-28T16:39:01Z</time>
      </trkpt>
      <trkpt lat="43.5484" lon="1.48137">
        <ele>208.553</ele>
        <time>2020-03-28T16:39:07Z</time>
      </trkpt>
      <trkpt lat="43.54843" lon="1.48146">
        <ele>208.514</ele>
        <time>2020-03-28T16:39:13Z</time>
      </trkpt>
      <trkpt lat="43.54845" lon="1.48153">
        <ele>208.48</ele>
        <time>2020-03-28T16:39:18Z</time>
      </trkpt>
      <trkpt lat="43.54848" lon="1.48161">
        <ele>208.435</ele>
        <time>2020-03-28T16:39:24Z</time>
      </trkpt>
      <trkpt lat="43.5485" lon="1.48167">
        <ele>208.39</ele>
        <time>2020-03-28T16:39:29Z</time>
      </trkpt>
      <trkpt lat="43.54851" lon="1.48175">
        <ele>208.342</ele>
        <time>2020-03-28T16:39:34Z</time>
      </trkpt>
      <trkpt lat="43.54852" lon="1.48182">
        <ele>208.293</ele>
        <time>2020-03-28T16:39:39Z</time>
      </trkpt>
      <trkpt lat="43.54856" lon="1.48189">
        <ele>208.235</ele>
        <time>2020-03-28T16:39:45Z</time>
      </trkpt>
      <trkpt lat="43.54859" lon="1.48198">
        <ele>208.182</ele>
        <time>2020-03-28T16:39:51Z</time>
      </trkpt>
      <trkpt lat="43.54861" lon="1.48206">
        <ele>208.126</ele>
        <time>2020-03-28T16:39:57Z</time>
      </trkpt>
      <trkpt lat="43.54864" lon="1.48211">
        <ele>208.069</ele>
        <time>2020-03-28T16:40:02Z</time>
      </trkpt>
      <trkpt lat="43.54868" lon="1.48219">
        <ele>207.988</ele>
        <time>2020-03-28T16:40:08Z</time>
      </trkpt>
      <trkpt lat="43.5487" lon="1.48226">
        <ele>207.904</ele>
        <time>2020-03-28T16:40:14Z</time>
      </trkpt>
      <trkpt lat="43.54873" lon="1.48234">
        <ele>207.824</ele>
        <time>2020-03-28T16:40:19Z</time>
      </trkpt>
      <trkpt lat="43.54874" lon="1.48243">
        <ele>207.729</ele>
        <time>2020-03-28T16:40:25Z</time>
      </trkpt>
      <trkpt lat="43.54876" lon="1.4825">
        <ele>207.651</ele>
        <time>2020-03-28T16:40:30Z</time>
      </trkpt>
      <trkpt lat="43.5488" lon="1.48254">
        <ele>207.57</ele>
        <time>2020-03-28T16:40:35Z</time>
      </trkpt>
      <trkpt lat="43.54883" lon="1.4826">
        <ele>207.48</ele>
        <time>2020-03-28T16:40:40Z</time>
      </trkpt>
      <trkpt lat="43.54886" lon="1.48269">
        <ele>207.365</ele>
        <time>2020-03-28T16:40:46Z</time>
      </trkpt>
      <trkpt lat="43.54887" lon="1.48277">
        <ele>207.267</ele>
        <time>2020-03-28T16:40:51Z</time>
      </trkpt>
      <trkpt lat="43.54889" lon="1.48288">
        <ele>207.154</ele>
        <time>2020-03-28T16:40:57Z</time>
      </trkpt>
      <trkpt lat="43.54892" lon="1.48297">
        <ele>207.072</ele>
        <time>2020-03-28T16:41:02Z</time>
      </trkpt>
      <trkpt lat="43.54894" lon="1.48304">
        <ele>206.994</ele>
        <time>2020-03-28T16:41:07Z</time>
      </trkpt>
      <trkpt lat="43.54897" lon="1.4831">
        <ele>206.903</ele>
        <time>2020-03-28T16:41:13Z</time>
      </trkpt>
      <trkpt lat="43.54902" lon="1.48315">
        <ele>206.841</ele>
        <time>2020-03-28T16:41:18Z</time>
      </trkpt>
      <trkpt lat="43.54905" lon="1.48321">
        <ele>206.77</ele>
        <time>2020-03-28T16:41:24Z</time>
      </trkpt>
      <trkpt lat="43.54909" lon="1.48329">
        <ele>206.689</ele>
        <time>2020-03-28T16:41:30Z</time>
      </trkpt>
      <trkpt lat="43.54913" lon="1.48335">
        <ele>206.607</ele>
        <time>2020-03-28T16:41:36Z</time>
      </trkpt>
      <trkpt lat="43.54916" lon="1.48341">
        <ele>206.53</ele>
        <time>2020-03-28T16:41:42Z</time>
      </trkpt>
      <trkpt lat="43.54922" lon="1.48343">
        <ele>206.477</ele>
        <time>2020-03-28T16:41:47Z</time>
      </trkpt>
      <trkpt lat="43.54924" lon="1.4835">
        <ele>206.406</ele>
        <time>2020-03-28T16:41:53Z</time>
      </trkpt>
      <trkpt lat="43.54927" lon="1.48356">
        <ele>206.335</ele>
        <time>2020-03-28T16:41:58Z</time>
      </trkpt>
      <trkpt lat="43.54929" lon="1.48363">
        <ele>206.245</ele>
        <time>2020-03-28T16:42:04Z</time>
      </trkpt>
      <trkpt lat="43.54933" lon="1.48371">
        <ele>206.167</ele>
        <time>2020-03-28T16:42:09Z</time>
      </trkpt>
      <trkpt lat="43.54936" lon="1.48378">
        <ele>206.076</ele>
        <time>2020-03-28T16:42:15Z</time>
      </trkpt>
      <trkpt lat="43.54939" lon="1.48377">
        <ele>205.991</ele>
        <time>2020-03-28T16:42:21Z</time>
      </trkpt>
      <trkpt lat="43.54943" lon="1.48375">
        <ele>205.916</ele>
        <time>2020-03-28T16:42:27Z</time>
      </trkpt>
      <trkpt lat="43.54947" lon="1.48374">
        <ele>205.842</ele>
        <time>2020-03-28T16:42:32Z</time>
      </trkpt>
      <trkpt lat="43.54953" lon="1.48377">
        <ele>205.749</ele>
        <time>2020-03-28T16:42:38Z</time>
      </trkpt>
      <trkpt lat="43.54958" lon="1.48385">
        <ele>205.64</ele>
        <time>2020-03-28T16:42:44Z</time>
      </trkpt>
      <trkpt lat="43.54961" lon="1.4839">
        <ele>205.539</ele>
        <time>2020-03-28T16:42:49Z</time>
      </trkpt>
      <trkpt lat="43.54965" lon="1.48398">
        <ele>205.409</ele>
        <time>2020-03-28T16:42:55Z</time>
      </trkpt>
      <trkpt lat="43.54968" lon="1.48405">
        <ele>205.272</ele>
        <time>2020-03-28T16:43:01Z</time>
      </trkpt>
      <trkpt lat="43.5497" lon="1.48412">
        <ele>205.156</ele>
        <time>2020-03-28T16:43:06Z</time>
      </trkpt>
      <trkpt lat="43.54971" lon="1.48419">
        <ele>205.025</ele>
        <time>2020-03-28T16:43:12Z</time>
      </trkpt>
      <trkpt lat="43.54974" lon="1.48425">
        <ele>204.926</ele>
        <time>2020-03-28T16:43:17Z</time>
      </trkpt>
      <trkpt lat="43.54974" lon="1.48432">
        <ele>204.837</ele>
        <time>2020-03-28T16:43:22Z</time>
      </trkpt>
      <trkpt lat="43.54972" lon="1.48438">
        <ele>204.743</ele>
        <time>2020-03-28T16:43:28Z</time>
      </trkpt>
      <trkpt lat="43.54968" lon="1.48443">
        <ele>204.672</ele>
        <time>2020-03-28T16:43:33Z</time>
      </trkpt>
      <trkpt lat="43.54962" lon="1.48447">
        <ele>204.595</ele>
        <time>2020-03-28T16:43:39Z</time>
      </trkpt>
      <trkpt lat="43.54962" lon="1.48452">
        <ele>204.527</ele>
        <time>2020-03-28T16:43:45Z</time>
      </trkpt>
      <trkpt lat="43.54961" lon="1.48458">
        <ele>204.472</ele>
        <time>2020-03-28T16:43:51Z</time>
      </trkpt>
      <trkpt lat="43.54963" lon="1.48452">
        <ele>204.426</ele>
        <time>2020-03-28T16:43:56Z</time>
      </trkpt>
      <trkpt lat="43.54968" lon="1.48449">
        <ele>204.391</ele>
        <time>2020-03-28T16:44:01Z</time>
      </trkpt>
      <trkpt lat="43.54975" lon="1.48444">
        <ele>204.355</ele>
        <time>2020-03-28T16:44:07Z</time>
      </trkpt>
      <trkpt lat="43.5498" lon="1.4844">
        <ele>204.335</ele>
        <time>2020-03-28T16:44:12Z</time>
      </trkpt>
      <trkpt lat="43.54984" lon="1.48437">
        <ele>204.318</ele>
        <time>2020-03-28T16:44:18Z</time>
      </trkpt>
      <trkpt lat="43.54988" lon="1.48434">
        <ele>204.305</ele>
        <time>2020-03-28T16:44:23Z</time>
      </trkpt>
      <trkpt lat="43.54992" lon="1.4843">
        <ele>204.29</ele>
        <time>2020-03-28T16:44:28Z</time>
      </trkpt>
      <trkpt lat="43.54996" lon="1.48429">
        <ele>204.271</ele>
        <time>2020-03-28T16:44:34Z</time>
      </trkpt>
      <trkpt lat="43.54999" lon="1.48431">
        <ele>204.233</ele>
        <time>2020-03-28T16:44:40Z</time>
      </trkpt>
      <trkpt lat="43.54998" lon="1.48436">
        <ele>204.182</ele>
        <time>2020-03-28T16:44:46Z</time>
      </trkpt>
      <trkpt lat="43.55002" lon="1.48441">
        <ele>204.125</ele>
        <time>2020-03-28T16:44:52Z</time>
      </trkpt>
      <trkpt lat="43.55006" lon="1.4845">
        <ele>204.068</ele>
        <time>2020-03-28T16:44:58Z</time>
      </trkpt>
      <trkpt lat="43.55007" lon="1.48456">
        <ele>204.026</ele>
        <time>2020-03-28T16:45:03Z</time>
      </trkpt>
      <trkpt lat="43.55009" lon="1.48464">
        <ele>203.981</ele>
        <time>2020-03-28T16:45:08Z</time>
      </trkpt>
      <trkpt lat="43.55012" lon="1.48474">
        <ele>203.927</ele>
        <time>2020-03-28T16:45:14Z</time>
      </trkpt>
      <trkpt lat="43.55012" lon="1.48484">
        <ele>203.878</ele>
        <time>2020-03-28T16:45:19Z</time>
      </trkpt>
      <trkpt lat="43.55016" lon="1.4849">
        <ele>203.83</ele>
        <time>2020-03-28T16:45:24Z</time>
      </trkpt>
      <trkpt lat="43.55017" lon="1.48494">
        <ele>203.783</ele>
        <time>2020-03-28T16:45:29Z</time>
      </trkpt>
      <trkpt lat="43.55018" lon="1.48492">
        <ele>203.721</ele>
        <time>2020-03-28T16:45:35Z</time>
      </trkpt>
      <trkpt lat="43.55019" lon="1.48491">
        <ele>203.672</ele>
        <time>2020-03-28T16:45:40Z</time>
      </trkpt>
      <trkpt lat="43.55024" lon="1.4849">
        <ele>203.602</ele>
        <time>2020-03-28T16:45:46Z</time>
      </trkpt>
      <trkpt lat="43.55034" lon="1.48483">
        <ele>203.546</ele>
        <time>2020-03-28T16:45:51Z</time>
      </trkpt>
      <trkpt lat="43.5504" lon="1.48479">
        <ele>203.492</ele>
        <time>2020-03-28T16:45:56Z</time>
      </trkpt>
      <trkpt lat="43.55046" lon="1.48475">
        <ele>203.441</ele>
        <time>2020-03-28T16:46:01Z</time>
      </trkpt>
      <trkpt lat="43.55051" lon="1.48473">
        <ele>203.381</ele>
        <time>2020-03-28T16:46:07Z</time>
      </trkpt>
      <trkpt lat="43.55053" lon="1.48472">
        <ele>203.34</ele>
        <time>2020-03-28T16:46:13Z</time>
      </trkpt>
      <trkpt lat="43.55055" lon="1.4847">
        <ele>203.296</ele>
        <time>2020-03-28T16:46:18Z</time>
      </trkpt>
      <trkpt lat="43.55057" lon="1.4847">
        <ele>203.238</ele>
        <time>2020-03-28T16:46:24Z</time>
      </trkpt>
      <trkpt lat="43.55058" lon="1.4847">
        <ele>203.207</ele>
        <time>2020-03-28T16:46:30Z</time>
      </trkpt>
      <trkpt lat="43.55063" lon="1.48477">
        <ele>203.156</ele>
        <time>2020-03-28T16:46:35Z</time>
      </trkpt>
      <trkpt lat="43.55067" lon="1.48487">
        <ele>203.066</ele>
        <time>2020-03-28T16:46:41Z</time>
      </trkpt>
      <trkpt lat="43.5507" lon="1.4849">
        <ele>202.965</ele>
        <time>2020-03-28T16:46:46Z</time>
      </trkpt>
      <trkpt lat="43.55076" lon="1.48497">
        <ele>202.839</ele>
        <time>2020-03-28T16:46:52Z</time>
      </trkpt>
      <trkpt lat="43.55081" lon="1.48505">
        <ele>202.707</ele>
        <time>2020-03-28T16:46:58Z</time>
      </trkpt>
      <trkpt lat="43.55083" lon="1.48514">
        <ele>202.603</ele>
        <time>2020-03-28T16:47:03Z</time>
      </trkpt>
      <trkpt lat="43.55084" lon="1.48524">
        <ele>202.486</ele>
        <time>2020-03-28T16:47:09Z</time>
      </trkpt>
      <trkpt lat="43.55086" lon="1.48534">
        <ele>202.374</ele>
        <time>2020-03-28T16:47:15Z</time>
      </trkpt>
      <trkpt lat="43.55087" lon="1.4854">
        <ele>202.282</ele>
        <time>2020-03-28T16:47:20Z</time>
      </trkpt>
      <trkpt lat="43.5509" lon="1.48547">
        <ele>202.176</ele>
        <time>2020-03-28T16:47:26Z</time>
      </trkpt>
      <trkpt lat="43.55093" lon="1.48553">
        <ele>202.076</ele>
        <time>2020-03-28T16:47:32Z</time>
      </trkpt>
      <trkpt lat="43.55094" lon="1.48559">
        <ele>201.996</ele>
        <time>2020-03-28T16:47:37Z</time>
      </trkpt>
      <trkpt lat="43.55096" lon="1.48563">
        <ele>201.915</ele>
        <time>2020-03-28T16:47:43Z</time>
      </trkpt>
      <trkpt lat="43.55099" lon="1.48568">
        <ele>201.837</ele>
        <time>2020-03-28T16:47:48Z</time>
      </trkpt>
      <trkpt lat="43.55101" lon="1.48571">
        <ele>201.784</ele>
        <time>2020-03-28T16:47:54Z</time>
      </trkpt>
      <trkpt lat="43.55101" lon="1.4858">
        <ele>201.706</ele>
        <time>2020-03-28T16:47:59Z</time>
      </trkpt>
      <trkpt lat="43.55101" lon="1.48585">
        <ele>201.628</ele>
        <time>2020-03-28T16:48:04Z</time>
      </trkpt>
      <trkpt lat="43.55103" lon="1.48593">
        <ele>201.549</ele>
        <time>2020-03-28T16:48:09Z</time>
      </trkpt>
      <trkpt lat="43.55108" lon="1.48603">
        <ele>201.472</ele>
        <time>2020-03-28T16:48:14Z</time>
      </trkpt>
      <trkpt lat="43.55112" lon="1.48609">
        <ele>201.392</ele>
        <time>2020-03-28T16:48:20Z</time>
      </trkpt>
      <trkpt lat="43.55114" lon="1.48618">
        <ele>201.314</ele>
        <time>2020-03-28T16:48:25Z</time>
      </trkpt>
      <trkpt lat="43.55116" lon="1.48622">
        <ele>201.249</ele>
        <time>2020-03-28T16:48:31Z</time>
      </trkpt>
      <trkpt lat="43.55119" lon="1.48624">
        <ele>201.183</ele>
        <time>2020-03-28T16:48:36Z</time>
      </trkpt>
      <trkpt lat="43.55123" lon="1.48628">
        <ele>201.099</ele>
        <time>2020-03-28T16:48:42Z</time>
      </trkpt>
      <trkpt lat="43.55127" lon="1.4864">
        <ele>201.017</ele>
        <time>2020-03-28T16:48:47Z</time>
      </trkpt>
      <trkpt lat="43.5513" lon="1.48644">
        <ele>200.936</ele>
        <time>2020-03-28T16:48:52Z</time>
      </trkpt>
      <trkpt lat="43.55133" lon="1.48646">
        <ele>200.885</ele>
        <time>2020-03-28T16:48:57Z</time>
      </trkpt>
      <trkpt lat="43.55137" lon="1.48652">
        <ele>200.789</ele>
        <time>2020-03-28T16:49:03Z</time>
      </trkpt>
      <trkpt lat="43.55141" lon="1.48659">
        <ele>200.712</ele>
        <time>2020-03-28T16:49:08Z</time>
      </trkpt>
      <trkpt lat="43.55146" lon="1.48668">
        <ele>200.637</ele>
        <time>2020-03-28T16:49:14Z</time>
      </trkpt>
      <trkpt lat="43.55146" lon="1.48676">
        <ele>200.554</ele>
        <time>2020-03-28T16:49:20Z</time>
      </trkpt>
      <trkpt lat="43.55148" lon="1.48686">
        <ele>200.491</ele>
        <time>2020-03-28T16:49:25Z</time>
      </trkpt>
      <trkpt lat="43.55151" lon="1.48695">
        <ele>200.421</ele>
        <time>2020-03-28T16:49:31Z</time>
      </trkpt>
      <trkpt lat="43.55153" lon="1.48703">
        <ele>200.35</ele>
        <time>2020-03-28T16:49:37Z</time>
      </trkpt>
      <trkpt lat="43.55156" lon="1.48709">
        <ele>200.286</ele>
        <time>2020-03-28T16:49:42Z</time>
      </trkpt>
      <trkpt lat="43.5516" lon="1.48716">
        <ele>200.205</ele>
        <time>2020-03-28T16:49:48Z</time>
      </trkpt>
      <trkpt lat="43.55171" lon="1.48723">
        <ele>200.149</ele>
        <time>2020-03-28T16:49:54Z</time>
      </trkpt>
      <trkpt lat="43.55173" lon="1.48725">
        <ele>200.105</ele>
        <time>2020-03-28T16:50:00Z</time>
      </trkpt>
      <trkpt lat="43.55172" lon="1.48728">
        <ele>200.075</ele>
        <time>2020-03-28T16:50:05Z</time>
      </trkpt>
      <trkpt lat="43.5517" lon="1.48734">
        <ele>200.046</ele>
        <time>2020-03-28T16:50:11Z</time>
      </trkpt>
      <trkpt lat="43.55166" lon="1.48741">
        <ele>200.023</ele>
        <time>2020-03-28T16:50:17Z</time>
      </trkpt>
      <trkpt lat="43.55163" lon="1.48748">
        <ele>200.001</ele>
        <time>2020-03-28T16:50:23Z</time>
      </trkpt>
      <trkpt lat="43.5516" lon="1.48754">
        <ele>199.973</ele>
        <time>2020-03-28T16:50:29Z</time>
      </trkpt>
      <trkpt lat="43.55156" lon="1.48761">
        <ele>199.942</ele>
        <time>2020-03-28T16:50:35Z</time>
      </trkpt>
      <trkpt lat="43.55153" lon="1.48764">
        <ele>199.917</ele>
        <time>2020-03-28T16:50:40Z</time>
      </trkpt>
      <trkpt lat="43.55153" lon="1.4877">
        <ele>199.885</ele>
        <time>2020-03-28T16:50:46Z</time>
      </trkpt>
      <trkpt lat="43.55153" lon="1.48779">
        <ele>199.855</ele>
        <time>2020-03-28T16:50:51Z</time>
      </trkpt>
      <trkpt lat="43.55154" lon="1.48787">
        <ele>199.822</ele>
        <time>2020-03-28T16:50:57Z</time>
      </trkpt>
      <trkpt lat="43.55155" lon="1.48795">
        <ele>199.792</ele>
        <time>2020-03-28T16:51:02Z</time>
      </trkpt>
      <trkpt lat="43.55157" lon="1.48804">
        <ele>199.765</ele>
        <time>2020-03-28T16:51:08Z</time>
      </trkpt>
      <trkpt lat="43.55158" lon="1.48812">
        <ele>199.746</ele>
        <time>2020-03-28T16:51:13Z</time>
      </trkpt>
      <trkpt lat="43.5516" lon="1.48821">
        <ele>199.727</ele>
        <time>2020-03-28T16:51:19Z</time>
      </trkpt>
      <trkpt lat="43.55164" lon="1.48831">
        <ele>199.724</ele>
        <time>2020-03-28T16:51:25Z</time>
      </trkpt>
      <trkpt lat="43.55166" lon="1.48836">
        <ele>199.727</ele>
        <time>2020-03-28T16:51:30Z</time>
      </trkpt>
      <trkpt lat="43.5517" lon="1.48842">
        <ele>199.726</ele>
        <time>2020-03-28T16:51:36Z</time>
      </trkpt>
      <trkpt lat="43.55175" lon="1.48848">
        <ele>199.724</ele>
        <time>2020-03-28T16:51:42Z</time>
      </trkpt>
      <trkpt lat="43.55178" lon="1.48854">
        <ele>199.719</ele>
        <time>2020-03-28T16:51:48Z</time>
      </trkpt>
      <trkpt lat="43.55181" lon="1.48862">
        <ele>199.713</ele>
        <time>2020-03-28T16:51:54Z</time>
      </trkpt>
      <trkpt lat="43.55183" lon="1.48866">
        <ele>199.715</ele>
        <time>2020-03-28T16:52:00Z</time>
      </trkpt>
      <trkpt lat="43.55183" lon="1.4887">
        <ele>199.721</ele>
        <time>2020-03-28T16:52:06Z</time>
      </trkpt>
      <trkpt lat="43.55184" lon="1.48874">
        <ele>199.722</ele>
        <time>2020-03-28T16:52:11Z</time>
      </trkpt>
      <trkpt lat="43.55184" lon="1.48883">
        <ele>199.717</ele>
        <time>2020-03-28T16:52:17Z</time>
      </trkpt>
      <trkpt lat="43.55188" lon="1.48887">
        <ele>199.717</ele>
        <time>2020-03-28T16:52:22Z</time>
      </trkpt>
      <trkpt lat="43.55192" lon="1.48893">
        <ele>199.714</ele>
        <time>2020-03-28T16:52:28Z</time>
      </trkpt>
      <trkpt lat="43.55198" lon="1.48897">
        <ele>199.711</ele>
        <time>2020-03-28T16:52:33Z</time>
      </trkpt>
      <trkpt lat="43.552" lon="1.48901">
        <ele>199.701</ele>
        <time>2020-03-28T16:52:39Z</time>
      </trkpt>
      <trkpt lat="43.55201" lon="1.48902">
        <ele>199.695</ele>
        <time>2020-03-28T16:52:44Z</time>
      </trkpt>
      <trkpt lat="43.55201" lon="1.48902">
        <ele>199.691</ele>
        <time>2020-03-28T16:52:49Z</time>
      </trkpt>
      <trkpt lat="43.55201" lon="1.48901">
        <ele>199.683</ele>
        <time>2020-03-28T16:52:54Z</time>
      </trkpt>
      <trkpt lat="43.552" lon="1.48904">
        <ele>199.676</ele>
        <time>2020-03-28T16:53:00Z</time>
      </trkpt>
      <trkpt lat="43.55201" lon="1.48902">
        <ele>199.674</ele>
        <time>2020-03-28T16:53:05Z</time>
      </trkpt>
      <trkpt lat="43.55202" lon="1.489">
        <ele>199.674</ele>
        <time>2020-03-28T16:53:11Z</time>
      </trkpt>
      <trkpt lat="43.55203" lon="1.48905">
        <ele>199.671</ele>
        <time>2020-03-28T16:53:17Z</time>
      </trkpt>
      <trkpt lat="43.55203" lon="1.48906">
        <ele>199.67</ele>
        <time>2020-03-28T16:53:22Z</time>
      </trkpt>
      <trkpt lat="43.55203" lon="1.48907">
        <ele>199.671</ele>
        <time>2020-03-28T16:53:28Z</time>
      </trkpt>
      <trkpt lat="43.55203" lon="1.48911">
        <ele>199.67</ele>
        <time>2020-03-28T16:53:34Z</time>
      </trkpt>
      <trkpt lat="43.55204" lon="1.48916">
        <ele>199.66</ele>
        <time>2020-03-28T16:53:39Z</time>
      </trkpt>
      <trkpt lat="43.55206" lon="1.48921">
        <ele>199.634</ele>
        <time>2020-03-28T16:53:45Z</time>
      </trkpt>
      <trkpt lat="43.55212" lon="1.48926">
        <ele>199.6</ele>
        <time>2020-03-28T16:53:51Z</time>
      </trkpt>
      <trkpt lat="43.55213" lon="1.48933">
        <ele>199.566</ele>
        <time>2020-03-28T16:53:56Z</time>
      </trkpt>
      <trkpt lat="43.55217" lon="1.4894">
        <ele>199.516</ele>
        <time>2020-03-28T16:54:02Z</time>
      </trkpt>
      <trkpt lat="43.5522" lon="1.48947">
        <ele>199.467</ele>
        <time>2020-03-28T16:54:07Z</time>
      </trkpt>
      <trkpt lat="43.55224" lon="1.48952">
        <ele>199.401</ele>
        <time>2020-03-28T16:54:13Z</time>
      </trkpt>
      <trkpt lat="43.55229" lon="1.48957">
        <ele>199.327</ele>
        <time>2020-03-28T16:54:19Z</time>
      </trkpt>
      <trkpt lat="43.55233" lon="1.4896">
        <ele>199.257</ele>
        <time>2020-03-28T16:54:24Z</time>
      </trkpt>
      <trkpt lat="43.55239" lon="1.48967">
        <ele>199.17</ele>
        <time>2020-03-28T16:54:30Z</time>
      </trkpt>
      <trkpt lat="43.55244" lon="1.4897">
        <ele>199.094</ele>
        <time>2020-03-28T16:54:35Z</time>
      </trkpt>
      <trkpt lat="43.55249" lon="1.48975">
        <ele>199</ele>
        <time>2020-03-28T16:54:41Z</time>
      </trkpt>
      <trkpt lat="43.55253" lon="1.4898">
        <ele>198.898</ele>
        <time>2020-03-28T16:54:47Z</time>
      </trkpt>
      <trkpt lat="43.55257" lon="1.48986">
        <ele>198.8</ele>
        <time>2020-03-28T16:54:53Z</time>
      </trkpt>
      <trkpt lat="43.55262" lon="1.48991">
        <ele>198.71</ele>
        <time>2020-03-28T16:54:59Z</time>
      </trkpt>
      <trkpt lat="43.55266" lon="1.48997">
        <ele>198.638</ele>
        <time>2020-03-28T16:55:04Z</time>
      </trkpt>
      <trkpt lat="43.55269" lon="1.49003">
        <ele>198.57</ele>
        <time>2020-03-28T16:55:09Z</time>
      </trkpt>
      <trkpt lat="43.55272" lon="1.49007">
        <ele>198.504</ele>
        <time>2020-03-28T16:55:14Z</time>
      </trkpt>
      <trkpt lat="43.55274" lon="1.49015">
        <ele>198.423</ele>
        <time>2020-03-28T16:55:20Z</time>
      </trkpt>
      <trkpt lat="43.55279" lon="1.4902">
        <ele>198.34</ele>
        <time>2020-03-28T16:55:26Z</time>
      </trkpt>
      <trkpt lat="43.55286" lon="1.49026">
        <ele>198.255</ele>
        <time>2020-03-28T16:55:32Z</time>
      </trkpt>
      <trkpt lat="43.55289" lon="1.49032">
        <ele>198.185</ele>
        <time>2020-03-28T16:55:37Z</time>
      </trkpt>
      <trkpt lat="43.55294" lon="1.49036">
        <ele>198.112</ele>
        <time>2020-03-28T16:55:42Z</time>
      </trkpt>
      <trkpt lat="43.55299" lon="1.49044">
        <ele>198.024</ele>
        <time>2020-03-28T16:55:48Z</time>
      </trkpt>
      <trkpt lat="43.55304" lon="1.4905">
        <ele>197.936</ele>
        <time>2020-03-28T16:55:54Z</time>
      </trkpt>
      <trkpt lat="43.55308" lon="1.49052">
        <ele>197.863</ele>
        <time>2020-03-28T16:55:59Z</time>
      </trkpt>
      <trkpt lat="43.55312" lon="1.49056">
        <ele>197.786</ele>
        <time>2020-03-28T16:56:04Z</time>
      </trkpt>
      <trkpt lat="43.55315" lon="1.49062">
        <ele>197.697</ele>
        <time>2020-03-28T16:56:10Z</time>
      </trkpt>
      <trkpt lat="43.55316" lon="1.49063">
        <ele>197.688</ele>
        <time>2020-03-28T16:56:16Z</time>
      </trkpt>
      <trkpt lat="43.55317" lon="1.49065">
        <ele>197.635</ele>
        <time>2020-03-28T16:56:22Z</time>
      </trkpt>
      <trkpt lat="43.55318" lon="1.49066">
        <ele>197.572</ele>
        <time>2020-03-28T16:56:27Z</time>
      </trkpt>
      <trkpt lat="43.55329" lon="1.49072">
        <ele>197.51</ele>
        <time>2020-03-28T16:56:32Z</time>
      </trkpt>
      <trkpt lat="43.55334" lon="1.4907">
        <ele>197.458</ele>
        <time>2020-03-28T16:56:37Z</time>
      </trkpt>
      <trkpt lat="43.55338" lon="1.49066">
        <ele>197.411</ele>
        <time>2020-03-28T16:56:43Z</time>
      </trkpt>
      <trkpt lat="43.55338" lon="1.49057">
        <ele>197.363</ele>
        <time>2020-03-28T16:56:48Z</time>
      </trkpt>
      <trkpt lat="43.55338" lon="1.49054">
        <ele>197.328</ele>
        <time>2020-03-28T16:56:54Z</time>
      </trkpt>
      <trkpt lat="43.55338" lon="1.49052">
        <ele>197.314</ele>
        <time>2020-03-28T16:56:59Z</time>
      </trkpt>
      <trkpt lat="43.55338" lon="1.49051">
        <ele>197.312</ele>
        <time>2020-03-28T16:57:04Z</time>
      </trkpt>
      <trkpt lat="43.55339" lon="1.49049">
        <ele>197.308</ele>
        <time>2020-03-28T16:57:10Z</time>
      </trkpt>
      <trkpt lat="43.55339" lon="1.49049">
        <ele>197.305</ele>
        <time>2020-03-28T16:57:15Z</time>
      </trkpt>
      <trkpt lat="43.55337" lon="1.4905">
        <ele>197.295</ele>
        <time>2020-03-28T16:57:21Z</time>
      </trkpt>
      <trkpt lat="43.55333" lon="1.49058">
        <ele>197.244</ele>
        <time>2020-03-28T16:57:27Z</time>
      </trkpt>
      <trkpt lat="43.5533" lon="1.49066">
        <ele>197.174</ele>
        <time>2020-03-28T16:57:33Z</time>
      </trkpt>
      <trkpt lat="43.55331" lon="1.49068">
        <ele>197.108</ele>
        <time>2020-03-28T16:57:38Z</time>
      </trkpt>
      <trkpt lat="43.55332" lon="1.49074">
        <ele>197.029</ele>
        <time>2020-03-28T16:57:44Z</time>
      </trkpt>
      <trkpt lat="43.55333" lon="1.49076">
        <ele>196.968</ele>
        <time>2020-03-28T16:57:49Z</time>
      </trkpt>
      <trkpt lat="43.55336" lon="1.49082">
        <ele>196.908</ele>
        <time>2020-03-28T16:57:54Z</time>
      </trkpt>
      <trkpt lat="43.55339" lon="1.49083">
        <ele>196.835</ele>
        <time>2020-03-28T16:58:00Z</time>
      </trkpt>
      <trkpt lat="43.55342" lon="1.49092">
        <ele>196.767</ele>
        <time>2020-03-28T16:58:06Z</time>
      </trkpt>
      <trkpt lat="43.55346" lon="1.49097">
        <ele>196.716</ele>
        <time>2020-03-28T16:58:11Z</time>
      </trkpt>
      <trkpt lat="43.55351" lon="1.49101">
        <ele>196.669</ele>
        <time>2020-03-28T16:58:16Z</time>
      </trkpt>
      <trkpt lat="43.55356" lon="1.49105">
        <ele>196.614</ele>
        <time>2020-03-28T16:58:22Z</time>
      </trkpt>
      <trkpt lat="43.5536" lon="1.49108">
        <ele>196.566</ele>
        <time>2020-03-28T16:58:27Z</time>
      </trkpt>
      <trkpt lat="43.55365" lon="1.49115">
        <ele>196.509</ele>
        <time>2020-03-28T16:58:33Z</time>
      </trkpt>
      <trkpt lat="43.55372" lon="1.49121">
        <ele>196.456</ele>
        <time>2020-03-28T16:58:39Z</time>
      </trkpt>
      <trkpt lat="43.55374" lon="1.49126">
        <ele>196.444</ele>
        <time>2020-03-28T16:58:44Z</time>
      </trkpt>
      <trkpt lat="43.55374" lon="1.49127">
        <ele>196.424</ele>
        <time>2020-03-28T16:58:49Z</time>
      </trkpt>
      <trkpt lat="43.55376" lon="1.49131">
        <ele>196.378</ele>
        <time>2020-03-28T16:58:54Z</time>
      </trkpt>
      <trkpt lat="43.55378" lon="1.49137">
        <ele>196.334</ele>
        <time>2020-03-28T16:58:59Z</time>
      </trkpt>
      <trkpt lat="43.55376" lon="1.49146">
        <ele>196.284</ele>
        <time>2020-03-28T16:59:05Z</time>
      </trkpt>
      <trkpt lat="43.55376" lon="1.49147">
        <ele>196.279</ele>
        <time>2020-03-28T16:59:11Z</time>
      </trkpt>
      <trkpt lat="43.55379" lon="1.49148">
        <ele>196.25</ele>
        <time>2020-03-28T16:59:16Z</time>
      </trkpt>
      <trkpt lat="43.55378" lon="1.49142">
        <ele>196.23</ele>
        <time>2020-03-28T16:59:22Z</time>
      </trkpt>
      <trkpt lat="43.55376" lon="1.49137">
        <ele>196.216</ele>
        <time>2020-03-28T16:59:28Z</time>
      </trkpt>
      <trkpt lat="43.55373" lon="1.49133">
        <ele>196.207</ele>
        <time>2020-03-28T16:59:33Z</time>
      </trkpt>
      <trkpt lat="43.55369" lon="1.49129">
        <ele>196.197</ele>
        <time>2020-03-28T16:59:38Z</time>
      </trkpt>
      <trkpt lat="43.55364" lon="1.49126">
        <ele>196.182</ele>
        <time>2020-03-28T16:59:44Z</time>
      </trkpt>
      <trkpt lat="43.55361" lon="1.49123">
        <ele>196.166</ele>
        <time>2020-03-28T16:59:49Z</time>
      </trkpt>
      <trkpt lat="43.55355" lon="1.49118">
        <ele>196.152</ele>
        <time>2020-03-28T16:59:55Z</time>
      </trkpt>
      <trkpt lat="43.55351" lon="1.49114">
        <ele>196.143</ele>
        <time>2020-03-28T17:00:00Z</time>
      </trkpt>
      <trkpt lat="43.55345" lon="1.49107">
        <ele>196.132</ele>
        <time>2020-03-28T17:00:06Z</time>
      </trkpt>
      <trkpt lat="43.55342" lon="1.49104">
        <ele>196.119</ele>
        <time>2020-03-28T17:00:11Z</time>
      </trkpt>
      <trkpt lat="43.55339" lon="1.49098">
        <ele>196.102</ele>
        <time>2020-03-28T17:00:17Z</time>
      </trkpt>
      <trkpt lat="43.55336" lon="1.49094">
        <ele>196.084</ele>
        <time>2020-03-28T17:00:22Z</time>
      </trkpt>
      <trkpt lat="43.55331" lon="1.49088">
        <ele>196.063</ele>
        <time>2020-03-28T17:00:28Z</time>
      </trkpt>
      <trkpt lat="43.55328" lon="1.49085">
        <ele>196.051</ele>
        <time>2020-03-28T17:00:33Z</time>
      </trkpt>
      <trkpt lat="43.55324" lon="1.49079">
        <ele>196.041</ele>
        <time>2020-03-28T17:00:39Z</time>
      </trkpt>
      <trkpt lat="43.5532" lon="1.49074">
        <ele>196.035</ele>
        <time>2020-03-28T17:00:44Z</time>
      </trkpt>
      <trkpt lat="43.55315" lon="1.49069">
        <ele>196.028</ele>
        <time>2020-03-28T17:00:49Z</time>
      </trkpt>
      <trkpt lat="43.5531" lon="1.49061">
        <ele>196.021</ele>
        <time>2020-03-28T17:00:55Z</time>
      </trkpt>
      <trkpt lat="43.55308" lon="1.49058">
        <ele>196.018</ele>
        <time>2020-03-28T17:01:00Z</time>
      </trkpt>
      <trkpt lat="43.55305" lon="1.49052">
        <ele>196.012</ele>
        <time>2020-03-28T17:01:06Z</time>
      </trkpt>
      <trkpt lat="43.55299" lon="1.49046">
        <ele>196.003</ele>
        <time>2020-03-28T17:01:11Z</time>
      </trkpt>
      <trkpt lat="43.55293" lon="1.49043">
        <ele>195.992</ele>
        <time>2020-03-28T17:01:16Z</time>
      </trkpt>
      <trkpt lat="43.55289" lon="1.49036">
        <ele>195.983</ele>
        <time>2020-03-28T17:01:21Z</time>
      </trkpt>
      <trkpt lat="43.55287" lon="1.49029">
        <ele>195.979</ele>
        <time>2020-03-28T17:01:27Z</time>
      </trkpt>
      <trkpt lat="43.55286" lon="1.49029">
        <ele>195.982</ele>
        <time>2020-03-28T17:01:33Z</time>
      </trkpt>
      <trkpt lat="43.55283" lon="1.49028">
        <ele>195.99</ele>
        <time>2020-03-28T17:01:39Z</time>
      </trkpt>
      <trkpt lat="43.55278" lon="1.49022">
        <ele>196.003</ele>
        <time>2020-03-28T17:01:45Z</time>
      </trkpt>
      <trkpt lat="43.55274" lon="1.49016">
        <ele>196.015</ele>
        <time>2020-03-28T17:01:51Z</time>
      </trkpt>
      <trkpt lat="43.55271" lon="1.49012">
        <ele>196.027</ele>
        <time>2020-03-28T17:01:56Z</time>
      </trkpt>
      <trkpt lat="43.55268" lon="1.49006">
        <ele>196.045</ele>
        <time>2020-03-28T17:02:02Z</time>
      </trkpt>
      <trkpt lat="43.55263" lon="1.49001">
        <ele>196.062</ele>
        <time>2020-03-28T17:02:07Z</time>
      </trkpt>
      <trkpt lat="43.55258" lon="1.48995">
        <ele>196.078</ele>
        <time>2020-03-28T17:02:13Z</time>
      </trkpt>
      <trkpt lat="43.55253" lon="1.48989">
        <ele>196.088</ele>
        <time>2020-03-28T17:02:18Z</time>
      </trkpt>
      <trkpt lat="43.55248" lon="1.48983">
        <ele>196.095</ele>
        <time>2020-03-28T17:02:24Z</time>
      </trkpt>
      <trkpt lat="43.55243" lon="1.48976">
        <ele>196.094</ele>
        <time>2020-03-28T17:02:30Z</time>
      </trkpt>
      <trkpt lat="43.55236" lon="1.48969">
        <ele>196.09</ele>
        <time>2020-03-28T17:02:36Z</time>
      </trkpt>
      <trkpt lat="43.55232" lon="1.48965">
        <ele>196.087</ele>
        <time>2020-03-28T17:02:41Z</time>
      </trkpt>
      <trkpt lat="43.55229" lon="1.48962">
        <ele>196.083</ele>
        <time>2020-03-28T17:02:46Z</time>
      </trkpt>
      <trkpt lat="43.55225" lon="1.48955">
        <ele>196.077</ele>
        <time>2020-03-28T17:02:52Z</time>
      </trkpt>
      <trkpt lat="43.55221" lon="1.4895">
        <ele>196.068</ele>
        <time>2020-03-28T17:02:57Z</time>
      </trkpt>
      <trkpt lat="43.55218" lon="1.48944">
        <ele>196.058</ele>
        <time>2020-03-28T17:03:03Z</time>
      </trkpt>
      <trkpt lat="43.55214" lon="1.48937">
        <ele>196.05</ele>
        <time>2020-03-28T17:03:08Z</time>
      </trkpt>
      <trkpt lat="43.55212" lon="1.48932">
        <ele>196.043</ele>
        <time>2020-03-28T17:03:13Z</time>
      </trkpt>
      <trkpt lat="43.5521" lon="1.48927">
        <ele>196.038</ele>
        <time>2020-03-28T17:03:18Z</time>
      </trkpt>
      <trkpt lat="43.55207" lon="1.48919">
        <ele>196.033</ele>
        <time>2020-03-28T17:03:24Z</time>
      </trkpt>
      <trkpt lat="43.55205" lon="1.48912">
        <ele>196.031</ele>
        <time>2020-03-28T17:03:29Z</time>
      </trkpt>
      <trkpt lat="43.55201" lon="1.48904">
        <ele>196.027</ele>
        <time>2020-03-28T17:03:35Z</time>
      </trkpt>
      <trkpt lat="43.55198" lon="1.48897">
        <ele>196.025</ele>
        <time>2020-03-28T17:03:41Z</time>
      </trkpt>
      <trkpt lat="43.55194" lon="1.48892">
        <ele>196.025</ele>
        <time>2020-03-28T17:03:47Z</time>
      </trkpt>
      <trkpt lat="43.55192" lon="1.48882">
        <ele>196.026</ele>
        <time>2020-03-28T17:03:52Z</time>
      </trkpt>
      <trkpt lat="43.55187" lon="1.48876">
        <ele>196.027</ele>
        <time>2020-03-28T17:03:58Z</time>
      </trkpt>
      <trkpt lat="43.55184" lon="1.48868">
        <ele>196.028</ele>
        <time>2020-03-28T17:04:04Z</time>
      </trkpt>
      <trkpt lat="43.55181" lon="1.48862">
        <ele>196.026</ele>
        <time>2020-03-28T17:04:09Z</time>
      </trkpt>
      <trkpt lat="43.55176" lon="1.48855">
        <ele>196.022</ele>
        <time>2020-03-28T17:04:15Z</time>
      </trkpt>
      <trkpt lat="43.55173" lon="1.48849">
        <ele>196.016</ele>
        <time>2020-03-28T17:04:20Z</time>
      </trkpt>
      <trkpt lat="43.55171" lon="1.48842">
        <ele>196.007</ele>
        <time>2020-03-28T17:04:26Z</time>
      </trkpt>
      <trkpt lat="43.55169" lon="1.48834">
        <ele>195.988</ele>
        <time>2020-03-28T17:04:32Z</time>
      </trkpt>
      <trkpt lat="43.55166" lon="1.48829">
        <ele>195.974</ele>
        <time>2020-03-28T17:04:37Z</time>
      </trkpt>
      <trkpt lat="43.55163" lon="1.48823">
        <ele>195.952</ele>
        <time>2020-03-28T17:04:43Z</time>
      </trkpt>
      <trkpt lat="43.5516" lon="1.48813">
        <ele>195.927</ele>
        <time>2020-03-28T17:04:49Z</time>
      </trkpt>
      <trkpt lat="43.55156" lon="1.48809">
        <ele>195.912</ele>
        <time>2020-03-28T17:04:54Z</time>
      </trkpt>
      <trkpt lat="43.55152" lon="1.48802">
        <ele>195.894</ele>
        <time>2020-03-28T17:04:59Z</time>
      </trkpt>
      <trkpt lat="43.55148" lon="1.48794">
        <ele>195.871</ele>
        <time>2020-03-28T17:05:05Z</time>
      </trkpt>
      <trkpt lat="43.55142" lon="1.4879">
        <ele>195.856</ele>
        <time>2020-03-28T17:05:10Z</time>
      </trkpt>
      <trkpt lat="43.55136" lon="1.48788">
        <ele>195.848</ele>
        <time>2020-03-28T17:05:16Z</time>
      </trkpt>
      <trkpt lat="43.55131" lon="1.48785">
        <ele>195.855</ele>
        <time>2020-03-28T17:05:21Z</time>
      </trkpt>
      <trkpt lat="43.55124" lon="1.4878">
        <ele>195.877</ele>
        <time>2020-03-28T17:05:27Z</time>
      </trkpt>
      <trkpt lat="43.55116" lon="1.48779">
        <ele>195.914</ele>
        <time>2020-03-28T17:05:33Z</time>
      </trkpt>
      <trkpt lat="43.55107" lon="1.48779">
        <ele>195.969</ele>
        <time>2020-03-28T17:05:39Z</time>
      </trkpt>
      <trkpt lat="43.551" lon="1.48777">
        <ele>196.047</ele>
        <time>2020-03-28T17:05:45Z</time>
      </trkpt>
      <trkpt lat="43.55094" lon="1.48777">
        <ele>196.134</ele>
        <time>2020-03-28T17:05:51Z</time>
      </trkpt>
      <trkpt lat="43.55087" lon="1.48775">
        <ele>196.222</ele>
        <time>2020-03-28T17:05:57Z</time>
      </trkpt>
      <trkpt lat="43.5508" lon="1.48773">
        <ele>196.32</ele>
        <time>2020-03-28T17:06:03Z</time>
      </trkpt>
      <trkpt lat="43.55076" lon="1.48772">
        <ele>196.408</ele>
        <time>2020-03-28T17:06:08Z</time>
      </trkpt>
      <trkpt lat="43.55072" lon="1.4877">
        <ele>196.51</ele>
        <time>2020-03-28T17:06:14Z</time>
      </trkpt>
      <trkpt lat="43.55066" lon="1.48769">
        <ele>196.608</ele>
        <time>2020-03-28T17:06:20Z</time>
      </trkpt>
      <trkpt lat="43.5506" lon="1.48766">
        <ele>196.699</ele>
        <time>2020-03-28T17:06:26Z</time>
      </trkpt>
      <trkpt lat="43.55056" lon="1.48762">
        <ele>196.779</ele>
        <time>2020-03-28T17:06:32Z</time>
      </trkpt>
      <trkpt lat="43.55054" lon="1.48759">
        <ele>196.833</ele>
        <time>2020-03-28T17:06:37Z</time>
      </trkpt>
      <trkpt lat="43.5505" lon="1.48753">
        <ele>196.88</ele>
        <time>2020-03-28T17:06:43Z</time>
      </trkpt>
      <trkpt lat="43.55047" lon="1.48747">
        <ele>196.918</ele>
        <time>2020-03-28T17:06:48Z</time>
      </trkpt>
      <trkpt lat="43.55042" lon="1.48739">
        <ele>196.952</ele>
        <time>2020-03-28T17:06:54Z</time>
      </trkpt>
      <trkpt lat="43.55038" lon="1.48733">
        <ele>196.978</ele>
        <time>2020-03-28T17:07:00Z</time>
      </trkpt>
      <trkpt lat="43.55033" lon="1.48727">
        <ele>196.997</ele>
        <time>2020-03-28T17:07:06Z</time>
      </trkpt>
      <trkpt lat="43.55031" lon="1.48719">
        <ele>197.007</ele>
        <time>2020-03-28T17:07:12Z</time>
      </trkpt>
      <trkpt lat="43.55028" lon="1.48715">
        <ele>197.013</ele>
        <time>2020-03-28T17:07:17Z</time>
      </trkpt>
      <trkpt lat="43.55025" lon="1.48711">
        <ele>197.018</ele>
        <time>2020-03-28T17:07:23Z</time>
      </trkpt>
      <trkpt lat="43.55021" lon="1.48704">
        <ele>197.022</ele>
        <time>2020-03-28T17:07:28Z</time>
      </trkpt>
      <trkpt lat="43.55016" lon="1.48697">
        <ele>197.023</ele>
        <time>2020-03-28T17:07:33Z</time>
      </trkpt>
      <trkpt lat="43.55011" lon="1.48692">
        <ele>197.019</ele>
        <time>2020-03-28T17:07:39Z</time>
      </trkpt>
      <trkpt lat="43.55009" lon="1.48685">
        <ele>197.011</ele>
        <time>2020-03-28T17:07:44Z</time>
      </trkpt>
      <trkpt lat="43.55005" lon="1.4868">
        <ele>196.994</ele>
        <time>2020-03-28T17:07:50Z</time>
      </trkpt>
      <trkpt lat="43.55" lon="1.48671">
        <ele>196.968</ele>
        <time>2020-03-28T17:07:56Z</time>
      </trkpt>
      <trkpt lat="43.54997" lon="1.48664">
        <ele>196.944</ele>
        <time>2020-03-28T17:08:01Z</time>
      </trkpt>
      <trkpt lat="43.54992" lon="1.48657">
        <ele>196.914</ele>
        <time>2020-03-28T17:08:07Z</time>
      </trkpt>
      <trkpt lat="43.5499" lon="1.48654">
        <ele>196.887</ele>
        <time>2020-03-28T17:08:12Z</time>
      </trkpt>
      <trkpt lat="43.54988" lon="1.48648">
        <ele>196.859</ele>
        <time>2020-03-28T17:08:17Z</time>
      </trkpt>
      <trkpt lat="43.54984" lon="1.48643">
        <ele>196.824</ele>
        <time>2020-03-28T17:08:23Z</time>
      </trkpt>
      <trkpt lat="43.54981" lon="1.48637">
        <ele>196.785</ele>
        <time>2020-03-28T17:08:29Z</time>
      </trkpt>
      <trkpt lat="43.54979" lon="1.48632">
        <ele>196.747</ele>
        <time>2020-03-28T17:08:35Z</time>
      </trkpt>
      <trkpt lat="43.54974" lon="1.48624">
        <ele>196.713</ele>
        <time>2020-03-28T17:08:41Z</time>
      </trkpt>
      <trkpt lat="43.54971" lon="1.48619">
        <ele>196.686</ele>
        <time>2020-03-28T17:08:46Z</time>
      </trkpt>
      <trkpt lat="43.54965" lon="1.48612">
        <ele>196.653</ele>
        <time>2020-03-28T17:08:52Z</time>
      </trkpt>
      <trkpt lat="43.54961" lon="1.48606">
        <ele>196.626</ele>
        <time>2020-03-28T17:08:57Z</time>
      </trkpt>
      <trkpt lat="43.54958" lon="1.48597">
        <ele>196.598</ele>
        <time>2020-03-28T17:09:02Z</time>
      </trkpt>
      <trkpt lat="43.54956" lon="1.48585">
        <ele>196.567</ele>
        <time>2020-03-28T17:09:08Z</time>
      </trkpt>
      <trkpt lat="43.54956" lon="1.48576">
        <ele>196.54</ele>
        <time>2020-03-28T17:09:14Z</time>
      </trkpt>
      <trkpt lat="43.54959" lon="1.48567">
        <ele>196.518</ele>
        <time>2020-03-28T17:09:20Z</time>
      </trkpt>
      <trkpt lat="43.5496" lon="1.48561">
        <ele>196.503</ele>
        <time>2020-03-28T17:09:26Z</time>
      </trkpt>
      <trkpt lat="43.5496" lon="1.48558">
        <ele>196.502</ele>
        <time>2020-03-28T17:09:31Z</time>
      </trkpt>
      <trkpt lat="43.54961" lon="1.48555">
        <ele>196.503</ele>
        <time>2020-03-28T17:09:36Z</time>
      </trkpt>
      <trkpt lat="43.54965" lon="1.48551">
        <ele>196.51</ele>
        <time>2020-03-28T17:09:42Z</time>
      </trkpt>
      <trkpt lat="43.54968" lon="1.4855">
        <ele>196.525</ele>
        <time>2020-03-28T17:09:47Z</time>
      </trkpt>
      <trkpt lat="43.54974" lon="1.48545">
        <ele>196.549</ele>
        <time>2020-03-28T17:09:53Z</time>
      </trkpt>
      <trkpt lat="43.54979" lon="1.48542">
        <ele>196.574</ele>
        <time>2020-03-28T17:09:58Z</time>
      </trkpt>
      <trkpt lat="43.54986" lon="1.48539">
        <ele>196.614</ele>
        <time>2020-03-28T17:10:04Z</time>
      </trkpt>
      <trkpt lat="43.54991" lon="1.48536">
        <ele>196.672</ele>
        <time>2020-03-28T17:10:10Z</time>
      </trkpt>
      <trkpt lat="43.54997" lon="1.48532">
        <ele>196.72</ele>
        <time>2020-03-28T17:10:15Z</time>
      </trkpt>
      <trkpt lat="43.55001" lon="1.48528">
        <ele>196.777</ele>
        <time>2020-03-28T17:10:21Z</time>
      </trkpt>
      <trkpt lat="43.55006" lon="1.48521">
        <ele>196.834</ele>
        <time>2020-03-28T17:10:27Z</time>
      </trkpt>
      <trkpt lat="43.55012" lon="1.48516">
        <ele>196.9</ele>
        <time>2020-03-28T17:10:33Z</time>
      </trkpt>
      <trkpt lat="43.55018" lon="1.48512">
        <ele>196.97</ele>
        <time>2020-03-28T17:10:39Z</time>
      </trkpt>
      <trkpt lat="43.5502" lon="1.48509">
        <ele>197.027</ele>
        <time>2020-03-28T17:10:44Z</time>
      </trkpt>
      <trkpt lat="43.55025" lon="1.48505">
        <ele>197.095</ele>
        <time>2020-03-28T17:10:50Z</time>
      </trkpt>
      <trkpt lat="43.55027" lon="1.48503">
        <ele>197.15</ele>
        <time>2020-03-28T17:10:55Z</time>
      </trkpt>
      <trkpt lat="43.55031" lon="1.48501">
        <ele>197.202</ele>
        <time>2020-03-28T17:11:00Z</time>
      </trkpt>
      <trkpt lat="43.55037" lon="1.48497">
        <ele>197.267</ele>
        <time>2020-03-28T17:11:06Z</time>
      </trkpt>
      <trkpt lat="43.55043" lon="1.48494">
        <ele>197.319</ele>
        <time>2020-03-28T17:11:11Z</time>
      </trkpt>
      <trkpt lat="43.55048" lon="1.48488">
        <ele>197.384</ele>
        <time>2020-03-28T17:11:17Z</time>
      </trkpt>
      <trkpt lat="43.55054" lon="1.48483">
        <ele>197.45</ele>
        <time>2020-03-28T17:11:23Z</time>
      </trkpt>
      <trkpt lat="43.55059" lon="1.48477">
        <ele>197.505</ele>
        <time>2020-03-28T17:11:28Z</time>
      </trkpt>
      <trkpt lat="43.55064" lon="1.48472">
        <ele>197.567</ele>
        <time>2020-03-28T17:11:34Z</time>
      </trkpt>
      <trkpt lat="43.55069" lon="1.48468">
        <ele>197.614</ele>
        <time>2020-03-28T17:11:39Z</time>
      </trkpt>
      <trkpt lat="43.55073" lon="1.48466">
        <ele>197.664</ele>
        <time>2020-03-28T17:11:44Z</time>
      </trkpt>
      <trkpt lat="43.5508" lon="1.48462">
        <ele>197.736</ele>
        <time>2020-03-28T17:11:50Z</time>
      </trkpt>
      <trkpt lat="43.55083" lon="1.4846">
        <ele>197.798</ele>
        <time>2020-03-28T17:11:55Z</time>
      </trkpt>
      <trkpt lat="43.55086" lon="1.48456">
        <ele>197.874</ele>
        <time>2020-03-28T17:12:01Z</time>
      </trkpt>
      <trkpt lat="43.55091" lon="1.48452">
        <ele>197.937</ele>
        <time>2020-03-28T17:12:06Z</time>
      </trkpt>
      <trkpt lat="43.55095" lon="1.48447">
        <ele>198.003</ele>
        <time>2020-03-28T17:12:11Z</time>
      </trkpt>
      <trkpt lat="43.551" lon="1.48441">
        <ele>198.087</ele>
        <time>2020-03-28T17:12:17Z</time>
      </trkpt>
      <trkpt lat="43.55105" lon="1.48435">
        <ele>198.164</ele>
        <time>2020-03-28T17:12:22Z</time>
      </trkpt>
      <trkpt lat="43.55109" lon="1.48428">
        <ele>198.264</ele>
        <time>2020-03-28T17:12:28Z</time>
      </trkpt>
      <trkpt lat="43.55111" lon="1.48424">
        <ele>198.347</ele>
        <time>2020-03-28T17:12:33Z</time>
      </trkpt>
      <trkpt lat="43.55115" lon="1.48421">
        <ele>198.441</ele>
        <time>2020-03-28T17:12:39Z</time>
      </trkpt>
      <trkpt lat="43.55118" lon="1.48417">
        <ele>198.511</ele>
        <time>2020-03-28T17:12:44Z</time>
      </trkpt>
      <trkpt lat="43.5512" lon="1.48413">
        <ele>198.588</ele>
        <time>2020-03-28T17:12:49Z</time>
      </trkpt>
      <trkpt lat="43.55122" lon="1.48408">
        <ele>198.69</ele>
        <time>2020-03-28T17:12:55Z</time>
      </trkpt>
      <trkpt lat="43.55125" lon="1.48403">
        <ele>198.773</ele>
        <time>2020-03-28T17:13:00Z</time>
      </trkpt>
      <trkpt lat="43.55126" lon="1.48394">
        <ele>198.858</ele>
        <time>2020-03-28T17:13:06Z</time>
      </trkpt>
      <trkpt lat="43.55125" lon="1.48384">
        <ele>198.925</ele>
        <time>2020-03-28T17:13:12Z</time>
      </trkpt>
      <trkpt lat="43.55125" lon="1.48376">
        <ele>198.972</ele>
        <time>2020-03-28T17:13:17Z</time>
      </trkpt>
      <trkpt lat="43.55122" lon="1.48371">
        <ele>199.023</ele>
        <time>2020-03-28T17:13:23Z</time>
      </trkpt>
      <trkpt lat="43.55119" lon="1.48367">
        <ele>199.069</ele>
        <time>2020-03-28T17:13:29Z</time>
      </trkpt>
      <trkpt lat="43.55115" lon="1.48362">
        <ele>199.108</ele>
        <time>2020-03-28T17:13:35Z</time>
      </trkpt>
      <trkpt lat="43.55111" lon="1.48356">
        <ele>199.14</ele>
        <time>2020-03-28T17:13:41Z</time>
      </trkpt>
      <trkpt lat="43.55106" lon="1.48352">
        <ele>199.168</ele>
        <time>2020-03-28T17:13:46Z</time>
      </trkpt>
      <trkpt lat="43.55102" lon="1.4835">
        <ele>199.195</ele>
        <time>2020-03-28T17:13:51Z</time>
      </trkpt>
      <trkpt lat="43.55097" lon="1.48338">
        <ele>199.221</ele>
        <time>2020-03-28T17:13:56Z</time>
      </trkpt>
      <trkpt lat="43.55092" lon="1.48332">
        <ele>199.244</ele>
        <time>2020-03-28T17:14:02Z</time>
      </trkpt>
      <trkpt lat="43.55087" lon="1.48324">
        <ele>199.262</ele>
        <time>2020-03-28T17:14:08Z</time>
      </trkpt>
      <trkpt lat="43.55083" lon="1.48319">
        <ele>199.276</ele>
        <time>2020-03-28T17:14:14Z</time>
      </trkpt>
      <trkpt lat="43.5508" lon="1.48314">
        <ele>199.286</ele>
        <time>2020-03-28T17:14:19Z</time>
      </trkpt>
      <trkpt lat="43.55076" lon="1.4831">
        <ele>199.298</ele>
        <time>2020-03-28T17:14:25Z</time>
      </trkpt>
      <trkpt lat="43.55073" lon="1.48304">
        <ele>199.31</ele>
        <time>2020-03-28T17:14:31Z</time>
      </trkpt>
      <trkpt lat="43.55069" lon="1.483">
        <ele>199.31</ele>
        <time>2020-03-28T17:14:36Z</time>
      </trkpt>
      <trkpt lat="43.55062" lon="1.48295">
        <ele>199.297</ele>
        <time>2020-03-28T17:14:42Z</time>
      </trkpt>
      <trkpt lat="43.5506" lon="1.48288">
        <ele>199.27</ele>
        <time>2020-03-28T17:14:48Z</time>
      </trkpt>
      <trkpt lat="43.55055" lon="1.48281">
        <ele>199.228</ele>
        <time>2020-03-28T17:14:54Z</time>
      </trkpt>
      <trkpt lat="43.55052" lon="1.48278">
        <ele>199.189</ele>
        <time>2020-03-28T17:14:59Z</time>
      </trkpt>
      <trkpt lat="43.55051" lon="1.48276">
        <ele>199.162</ele>
        <time>2020-03-28T17:15:04Z</time>
      </trkpt>
      <trkpt lat="43.55051" lon="1.48274">
        <ele>199.13</ele>
        <time>2020-03-28T17:15:10Z</time>
      </trkpt>
      <trkpt lat="43.55047" lon="1.48274">
        <ele>199.1</ele>
        <time>2020-03-28T17:15:16Z</time>
      </trkpt>
      <trkpt lat="43.55045" lon="1.48272">
        <ele>199.071</ele>
        <time>2020-03-28T17:15:22Z</time>
      </trkpt>
      <trkpt lat="43.55041" lon="1.48268">
        <ele>199.057</ele>
        <time>2020-03-28T17:15:27Z</time>
      </trkpt>
      <trkpt lat="43.55031" lon="1.48269">
        <ele>199.044</ele>
        <time>2020-03-28T17:15:33Z</time>
      </trkpt>
      <trkpt lat="43.55026" lon="1.48274">
        <ele>199.033</ele>
        <time>2020-03-28T17:15:39Z</time>
      </trkpt>
      <trkpt lat="43.55021" lon="1.48276">
        <ele>199.027</ele>
        <time>2020-03-28T17:15:44Z</time>
      </trkpt>
      <trkpt lat="43.55015" lon="1.48281">
        <ele>199.023</ele>
        <time>2020-03-28T17:15:50Z</time>
      </trkpt>
      <trkpt lat="43.55011" lon="1.48286">
        <ele>199.02</ele>
        <time>2020-03-28T17:15:55Z</time>
      </trkpt>
      <trkpt lat="43.55006" lon="1.48291">
        <ele>199.018</ele>
        <time>2020-03-28T17:16:01Z</time>
      </trkpt>
      <trkpt lat="43.54999" lon="1.48296">
        <ele>199.017</ele>
        <time>2020-03-28T17:16:07Z</time>
      </trkpt>
      <trkpt lat="43.54996" lon="1.483">
        <ele>199.016</ele>
        <time>2020-03-28T17:16:12Z</time>
      </trkpt>
      <trkpt lat="43.54995" lon="1.48303">
        <ele>199.013</ele>
        <time>2020-03-28T17:16:18Z</time>
      </trkpt>
      <trkpt lat="43.54989" lon="1.48307">
        <ele>199.01</ele>
        <time>2020-03-28T17:16:23Z</time>
      </trkpt>
      <trkpt lat="43.54985" lon="1.48314">
        <ele>199.003</ele>
        <time>2020-03-28T17:16:29Z</time>
      </trkpt>
      <trkpt lat="43.5498" lon="1.48319">
        <ele>198.997</ele>
        <time>2020-03-28T17:16:35Z</time>
      </trkpt>
      <trkpt lat="43.54974" lon="1.48324">
        <ele>198.991</ele>
        <time>2020-03-28T17:16:40Z</time>
      </trkpt>
      <trkpt lat="43.5497" lon="1.48329">
        <ele>198.985</ele>
        <time>2020-03-28T17:16:46Z</time>
      </trkpt>
      <trkpt lat="43.54962" lon="1.48335">
        <ele>198.979</ele>
        <time>2020-03-28T17:16:52Z</time>
      </trkpt>
      <trkpt lat="43.54958" lon="1.4834">
        <ele>198.976</ele>
        <time>2020-03-28T17:16:57Z</time>
      </trkpt>
      <trkpt lat="43.54954" lon="1.48344">
        <ele>198.972</ele>
        <time>2020-03-28T17:17:03Z</time>
      </trkpt>
      <trkpt lat="43.54947" lon="1.48348">
        <ele>198.966</ele>
        <time>2020-03-28T17:17:09Z</time>
      </trkpt>
      <trkpt lat="43.54945" lon="1.4835">
        <ele>198.957</ele>
        <time>2020-03-28T17:17:15Z</time>
      </trkpt>
      <trkpt lat="43.54942" lon="1.48351">
        <ele>198.952</ele>
        <time>2020-03-28T17:17:20Z</time>
      </trkpt>
      <trkpt lat="43.54938" lon="1.48356">
        <ele>198.947</ele>
        <time>2020-03-28T17:17:26Z</time>
      </trkpt>
      <trkpt lat="43.54934" lon="1.4836">
        <ele>198.947</ele>
        <time>2020-03-28T17:17:31Z</time>
      </trkpt>
      <trkpt lat="43.54929" lon="1.48361">
        <ele>198.95</ele>
        <time>2020-03-28T17:17:37Z</time>
      </trkpt>
      <trkpt lat="43.54925" lon="1.4836">
        <ele>198.953</ele>
        <time>2020-03-28T17:17:42Z</time>
      </trkpt>
      <trkpt lat="43.54924" lon="1.4836">
        <ele>198.959</ele>
        <time>2020-03-28T17:17:47Z</time>
      </trkpt>
      <trkpt lat="43.54923" lon="1.48357">
        <ele>198.972</ele>
        <time>2020-03-28T17:17:53Z</time>
      </trkpt>
      <trkpt lat="43.54922" lon="1.48354">
        <ele>198.989</ele>
        <time>2020-03-28T17:17:59Z</time>
      </trkpt>
      <trkpt lat="43.54921" lon="1.48352">
        <ele>199.003</ele>
        <time>2020-03-28T17:18:04Z</time>
      </trkpt>
      <trkpt lat="43.54915" lon="1.48344">
        <ele>199.023</ele>
        <time>2020-03-28T17:18:10Z</time>
      </trkpt>
      <trkpt lat="43.54912" lon="1.48334">
        <ele>199.044</ele>
        <time>2020-03-28T17:18:16Z</time>
      </trkpt>
      <trkpt lat="43.54909" lon="1.48328">
        <ele>199.062</ele>
        <time>2020-03-28T17:18:21Z</time>
      </trkpt>
      <trkpt lat="43.54906" lon="1.4832">
        <ele>199.084</ele>
        <time>2020-03-28T17:18:27Z</time>
      </trkpt>
      <trkpt lat="43.54905" lon="1.48314">
        <ele>199.105</ele>
        <time>2020-03-28T17:18:33Z</time>
      </trkpt>
      <trkpt lat="43.54903" lon="1.48308">
        <ele>199.126</ele>
        <time>2020-03-28T17:18:39Z</time>
      </trkpt>
      <trkpt lat="43.54901" lon="1.48299">
        <ele>199.148</ele>
        <time>2020-03-28T17:18:45Z</time>
      </trkpt>
      <trkpt lat="43.54896" lon="1.48293">
        <ele>199.168</ele>
        <time>2020-03-28T17:18:50Z</time>
      </trkpt>
      <trkpt lat="43.54893" lon="1.48283">
        <ele>199.186</ele>
        <time>2020-03-28T17:18:55Z</time>
      </trkpt>
      <trkpt lat="43.5489" lon="1.48277">
        <ele>199.203</ele>
        <time>2020-03-28T17:19:01Z</time>
      </trkpt>
      <trkpt lat="43.54889" lon="1.4827">
        <ele>199.214</ele>
        <time>2020-03-28T17:19:07Z</time>
      </trkpt>
      <trkpt lat="43.54887" lon="1.48264">
        <ele>199.226</ele>
        <time>2020-03-28T17:19:13Z</time>
      </trkpt>
      <trkpt lat="43.54883" lon="1.48258">
        <ele>199.237</ele>
        <time>2020-03-28T17:19:18Z</time>
      </trkpt>
      <trkpt lat="43.5488" lon="1.48248">
        <ele>199.246</ele>
        <time>2020-03-28T17:19:24Z</time>
      </trkpt>
      <trkpt lat="43.54878" lon="1.48237">
        <ele>199.25</ele>
        <time>2020-03-28T17:19:30Z</time>
      </trkpt>
      <trkpt lat="43.54877" lon="1.48233">
        <ele>199.254</ele>
        <time>2020-03-28T17:19:35Z</time>
      </trkpt>
      <trkpt lat="43.54876" lon="1.48227">
        <ele>199.262</ele>
        <time>2020-03-28T17:19:40Z</time>
      </trkpt>
      <trkpt lat="43.54876" lon="1.48219">
        <ele>199.277</ele>
        <time>2020-03-28T17:19:46Z</time>
      </trkpt>
      <trkpt lat="43.54874" lon="1.48217">
        <ele>199.292</ele>
        <time>2020-03-28T17:19:51Z</time>
      </trkpt>
      <trkpt lat="43.54871" lon="1.48208">
        <ele>199.303</ele>
        <time>2020-03-28T17:19:57Z</time>
      </trkpt>
      <trkpt lat="43.54865" lon="1.48198">
        <ele>199.308</ele>
        <time>2020-03-28T17:20:03Z</time>
      </trkpt>
      <trkpt lat="43.54863" lon="1.48189">
        <ele>199.306</ele>
        <time>2020-03-28T17:20:09Z</time>
      </trkpt>
      <trkpt lat="43.54862" lon="1.48182">
        <ele>199.302</ele>
        <time>2020-03-28T17:20:14Z</time>
      </trkpt>
      <trkpt lat="43.54859" lon="1.48172">
        <ele>199.299</ele>
        <time>2020-03-28T17:20:20Z</time>
      </trkpt>
      <trkpt lat="43.54858" lon="1.48166">
        <ele>199.297</ele>
        <time>2020-03-28T17:20:25Z</time>
      </trkpt>
      <trkpt lat="43.54857" lon="1.48158">
        <ele>199.303</ele>
        <time>2020-03-28T17:20:31Z</time>
      </trkpt>
      <trkpt lat="43.54855" lon="1.48152">
        <ele>199.317</ele>
        <time>2020-03-28T17:20:36Z</time>
      </trkpt>
      <trkpt lat="43.54852" lon="1.48147">
        <ele>199.336</ele>
        <time>2020-03-28T17:20:41Z</time>
      </trkpt>
      <trkpt lat="43.54848" lon="1.48142">
        <ele>199.358</ele>
        <time>2020-03-28T17:20:46Z</time>
      </trkpt>
      <trkpt lat="43.54845" lon="1.48133">
        <ele>199.383</ele>
        <time>2020-03-28T17:20:52Z</time>
      </trkpt>
      <trkpt lat="43.54844" lon="1.48128">
        <ele>199.401</ele>
        <time>2020-03-28T17:20:57Z</time>
      </trkpt>
      <trkpt lat="43.54842" lon="1.48122">
        <ele>199.419</ele>
        <time>2020-03-28T17:21:02Z</time>
      </trkpt>
      <trkpt lat="43.54839" lon="1.48116">
        <ele>199.438</ele>
        <time>2020-03-28T17:21:08Z</time>
      </trkpt>
      <trkpt lat="43.54838" lon="1.48107">
        <ele>199.449</ele>
        <time>2020-03-28T17:21:14Z</time>
      </trkpt>
      <trkpt lat="43.54835" lon="1.48102">
        <ele>199.458</ele>
        <time>2020-03-28T17:21:19Z</time>
      </trkpt>
      <trkpt lat="43.54835" lon="1.48095">
        <ele>199.464</ele>
        <time>2020-03-28T17:21:24Z</time>
      </trkpt>
      <trkpt lat="43.54835" lon="1.48094">
        <ele>199.464</ele>
        <time>2020-03-28T17:21:30Z</time>
      </trkpt>
      <trkpt lat="43.54831" lon="1.48091">
        <ele>199.467</ele>
        <time>2020-03-28T17:21:36Z</time>
      </trkpt>
      <trkpt lat="43.54829" lon="1.4809">
        <ele>199.475</ele>
        <time>2020-03-28T17:21:41Z</time>
      </trkpt>
      <trkpt lat="43.54828" lon="1.48087">
        <ele>199.483</ele>
        <time>2020-03-28T17:21:46Z</time>
      </trkpt>
      <trkpt lat="43.54828" lon="1.48076">
        <ele>199.495</ele>
        <time>2020-03-28T17:21:52Z</time>
      </trkpt>
      <trkpt lat="43.54824" lon="1.48072">
        <ele>199.507</ele>
        <time>2020-03-28T17:21:57Z</time>
      </trkpt>
      <trkpt lat="43.54821" lon="1.48066">
        <ele>199.534</ele>
        <time>2020-03-28T17:22:03Z</time>
      </trkpt>
      <trkpt lat="43.54818" lon="1.48057">
        <ele>199.567</ele>
        <time>2020-03-28T17:22:09Z</time>
      </trkpt>
      <trkpt lat="43.54816" lon="1.48052">
        <ele>199.597</ele>
        <time>2020-03-28T17:22:14Z</time>
      </trkpt>
      <trkpt lat="43.54814" lon="1.48043">
        <ele>199.635</ele>
        <time>2020-03-28T17:22:20Z</time>
      </trkpt>
      <trkpt lat="43.54813" lon="1.48037">
        <ele>199.666</ele>
        <time>2020-03-28T17:22:25Z</time>
      </trkpt>
      <trkpt lat="43.5481" lon="1.48027">
        <ele>199.704</ele>
        <time>2020-03-28T17:22:31Z</time>
      </trkpt>
      <trkpt lat="43.54808" lon="1.48021">
        <ele>199.745</ele>
        <time>2020-03-28T17:22:37Z</time>
      </trkpt>
      <trkpt lat="43.54805" lon="1.48015">
        <ele>199.793</ele>
        <time>2020-03-28T17:22:43Z</time>
      </trkpt>
      <trkpt lat="43.54801" lon="1.48007">
        <ele>199.848</ele>
        <time>2020-03-28T17:22:49Z</time>
      </trkpt>
      <trkpt lat="43.54797" lon="1.47998">
        <ele>199.896</ele>
        <time>2020-03-28T17:22:54Z</time>
      </trkpt>
      <trkpt lat="43.54793" lon="1.4799">
        <ele>199.942</ele>
        <time>2020-03-28T17:22:59Z</time>
      </trkpt>
      <trkpt lat="43.54791" lon="1.47981">
        <ele>199.994</ele>
        <time>2020-03-28T17:23:05Z</time>
      </trkpt>
      <trkpt lat="43.5479" lon="1.47973">
        <ele>200.043</ele>
        <time>2020-03-28T17:23:11Z</time>
      </trkpt>
      <trkpt lat="43.54789" lon="1.47969">
        <ele>200.085</ele>
        <time>2020-03-28T17:23:16Z</time>
      </trkpt>
      <trkpt lat="43.54784" lon="1.47962">
        <ele>200.136</ele>
        <time>2020-03-28T17:23:22Z</time>
      </trkpt>
      <trkpt lat="43.5478" lon="1.47955">
        <ele>200.181</ele>
        <time>2020-03-28T17:23:28Z</time>
      </trkpt>
      <trkpt lat="43.54778" lon="1.47944">
        <ele>200.222</ele>
        <time>2020-03-28T17:23:34Z</time>
      </trkpt>
      <trkpt lat="43.54777" lon="1.47934">
        <ele>200.259</ele>
        <time>2020-03-28T17:23:40Z</time>
      </trkpt>
      <trkpt lat="43.54776" lon="1.47931">
        <ele>200.28</ele>
        <time>2020-03-28T17:23:45Z</time>
      </trkpt>
      <trkpt lat="43.54775" lon="1.47926">
        <ele>200.315</ele>
        <time>2020-03-28T17:23:50Z</time>
      </trkpt>
      <trkpt lat="43.54772" lon="1.47921">
        <ele>200.356</ele>
        <time>2020-03-28T17:23:56Z</time>
      </trkpt>
      <trkpt lat="43.54771" lon="1.47914">
        <ele>200.399</ele>
        <time>2020-03-28T17:24:01Z</time>
      </trkpt>
      <trkpt lat="43.54768" lon="1.47908">
        <ele>200.442</ele>
        <time>2020-03-28T17:24:06Z</time>
      </trkpt>
      <trkpt lat="43.54765" lon="1.47898">
        <ele>200.492</ele>
        <time>2020-03-28T17:24:12Z</time>
      </trkpt>
      <trkpt lat="43.54758" lon="1.47887">
        <ele>200.53</ele>
        <time>2020-03-28T17:24:17Z</time>
      </trkpt>
      <trkpt lat="43.54761" lon="1.47879">
        <ele>200.566</ele>
        <time>2020-03-28T17:24:23Z</time>
      </trkpt>
      <trkpt lat="43.54765" lon="1.47873">
        <ele>200.596</ele>
        <time>2020-03-28T17:24:28Z</time>
      </trkpt>
      <trkpt lat="43.5477" lon="1.47866">
        <ele>200.629</ele>
        <time>2020-03-28T17:24:34Z</time>
      </trkpt>
      <trkpt lat="43.54776" lon="1.47861">
        <ele>200.658</ele>
        <time>2020-03-28T17:24:39Z</time>
      </trkpt>
      <trkpt lat="43.54779" lon="1.47857">
        <ele>200.689</ele>
        <time>2020-03-28T17:24:44Z</time>
      </trkpt>
      <trkpt lat="43.54783" lon="1.47851">
        <ele>200.73</ele>
        <time>2020-03-28T17:24:50Z</time>
      </trkpt>
      <trkpt lat="43.54788" lon="1.47844">
        <ele>200.768</ele>
        <time>2020-03-28T17:24:55Z</time>
      </trkpt>
      <trkpt lat="43.5479" lon="1.47841">
        <ele>200.8</ele>
        <time>2020-03-28T17:25:00Z</time>
      </trkpt>
      <trkpt lat="43.54793" lon="1.47833">
        <ele>200.832</ele>
        <time>2020-03-28T17:25:06Z</time>
      </trkpt>
      <trkpt lat="43.54796" lon="1.47825">
        <ele>200.864</ele>
        <time>2020-03-28T17:25:12Z</time>
      </trkpt>
      <trkpt lat="43.54799" lon="1.47819">
        <ele>200.888</ele>
        <time>2020-03-28T17:25:17Z</time>
      </trkpt>
      <trkpt lat="43.54801" lon="1.47813">
        <ele>200.909</ele>
        <time>2020-03-28T17:25:23Z</time>
      </trkpt>
      <trkpt lat="43.54802" lon="1.47809">
        <ele>200.922</ele>
        <time>2020-03-28T17:25:29Z</time>
      </trkpt>
      <trkpt lat="43.54805" lon="1.47807">
        <ele>200.929</ele>
        <time>2020-03-28T17:25:35Z</time>
      </trkpt>
      <trkpt lat="43.54806" lon="1.47805">
        <ele>200.941</ele>
        <time>2020-03-28T17:25:41Z</time>
      </trkpt>
      <trkpt lat="43.5481" lon="1.47802">
        <ele>200.951</ele>
        <time>2020-03-28T17:25:46Z</time>
      </trkpt>
      <trkpt lat="43.54813" lon="1.47798">
        <ele>200.959</ele>
        <time>2020-03-28T17:25:52Z</time>
      </trkpt>
      <trkpt lat="43.54819" lon="1.47795">
        <ele>200.965</ele>
        <time>2020-03-28T17:25:57Z</time>
      </trkpt>
      <trkpt lat="43.54823" lon="1.47792">
        <ele>200.978</ele>
        <time>2020-03-28T17:26:03Z</time>
      </trkpt>
      <trkpt lat="43.54827" lon="1.4779">
        <ele>200.995</ele>
        <time>2020-03-28T17:26:09Z</time>
      </trkpt>
      <trkpt lat="43.54829" lon="1.4779">
        <ele>201.008</ele>
        <time>2020-03-28T17:26:14Z</time>
      </trkpt>
      <trkpt lat="43.54835" lon="1.47787">
        <ele>201.018</ele>
        <time>2020-03-28T17:26:19Z</time>
      </trkpt>
      <trkpt lat="43.5484" lon="1.47783">
        <ele>201.026</ele>
        <time>2020-03-28T17:26:25Z</time>
      </trkpt>
      <trkpt lat="43.54845" lon="1.47779">
        <ele>201.026</ele>
        <time>2020-03-28T17:26:30Z</time>
      </trkpt>
      <trkpt lat="43.54853" lon="1.47779">
        <ele>201.026</ele>
        <time>2020-03-28T17:26:36Z</time>
      </trkpt>
      <trkpt lat="43.54859" lon="1.47768">
        <ele>201.024</ele>
        <time>2020-03-28T17:26:41Z</time>
      </trkpt>
      <trkpt lat="43.54871" lon="1.47768">
        <ele>201.015</ele>
        <time>2020-03-28T17:26:47Z</time>
      </trkpt>
      <trkpt lat="43.54877" lon="1.47767">
        <ele>201</ele>
        <time>2020-03-28T17:26:52Z</time>
      </trkpt>
      <trkpt lat="43.5488" lon="1.47764">
        <ele>200.978</ele>
        <time>2020-03-28T17:26:58Z</time>
      </trkpt>
      <trkpt lat="43.54886" lon="1.47758">
        <ele>200.96</ele>
        <time>2020-03-28T17:27:04Z</time>
      </trkpt>
      <trkpt lat="43.54894" lon="1.47755">
        <ele>200.953</ele>
        <time>2020-03-28T17:27:09Z</time>
      </trkpt>
      <trkpt lat="43.54898" lon="1.4775">
        <ele>200.955</ele>
        <time>2020-03-28T17:27:15Z</time>
      </trkpt>
      <trkpt lat="43.54903" lon="1.47743">
        <ele>200.955</ele>
        <time>2020-03-28T17:27:20Z</time>
      </trkpt>
      <trkpt lat="43.54909" lon="1.47737">
        <ele>200.951</ele>
        <time>2020-03-28T17:27:26Z</time>
      </trkpt>
      <trkpt lat="43.54915" lon="1.47733">
        <ele>200.95</ele>
        <time>2020-03-28T17:27:32Z</time>
      </trkpt>
      <trkpt lat="43.5492" lon="1.4773">
        <ele>200.948</ele>
        <time>2020-03-28T17:27:38Z</time>
      </trkpt>
      <trkpt lat="43.54923" lon="1.47728">
        <ele>200.95</ele>
        <time>2020-03-28T17:27:43Z</time>
      </trkpt>
      <trkpt lat="43.54929" lon="1.47723">
        <ele>200.948</ele>
        <time>2020-03-28T17:27:49Z</time>
      </trkpt>
      <trkpt lat="43.54939" lon="1.47719">
        <ele>200.946</ele>
        <time>2020-03-28T17:27:55Z</time>
      </trkpt>
      <trkpt lat="43.54946" lon="1.47717">
        <ele>200.946</ele>
        <time>2020-03-28T17:28:01Z</time>
      </trkpt>
      <trkpt lat="43.54952" lon="1.47713">
        <ele>200.948</ele>
        <time>2020-03-28T17:28:06Z</time>
      </trkpt>
      <trkpt lat="43.54956" lon="1.47711">
        <ele>200.956</ele>
        <time>2020-03-28T17:28:11Z</time>
      </trkpt>
      <trkpt lat="43.54961" lon="1.47709">
        <ele>200.967</ele>
        <time>2020-03-28T17:28:17Z</time>
      </trkpt>
      <trkpt lat="43.54967" lon="1.47706">
        <ele>200.974</ele>
        <time>2020-03-28T17:28:23Z</time>
      </trkpt>
      <trkpt lat="43.54972" lon="1.47704">
        <ele>200.977</ele>
        <time>2020-03-28T17:28:29Z</time>
      </trkpt>
      <trkpt lat="43.54979" lon="1.477">
        <ele>200.978</ele>
        <time>2020-03-28T17:28:35Z</time>
      </trkpt>
      <trkpt lat="43.54982" lon="1.47697">
        <ele>200.979</ele>
        <time>2020-03-28T17:28:41Z</time>
      </trkpt>
      <trkpt lat="43.54986" lon="1.47695">
        <ele>200.98</ele>
        <time>2020-03-28T17:28:46Z</time>
      </trkpt>
      <trkpt lat="43.54991" lon="1.47693">
        <ele>200.978</ele>
        <time>2020-03-28T17:28:51Z</time>
      </trkpt>
      <trkpt lat="43.54995" lon="1.47691">
        <ele>200.974</ele>
        <time>2020-03-28T17:28:56Z</time>
      </trkpt>
      <trkpt lat="43.54997" lon="1.47687">
        <ele>200.968</ele>
        <time>2020-03-28T17:29:02Z</time>
      </trkpt>
      <trkpt lat="43.54999" lon="1.47682">
        <ele>200.959</ele>
        <time>2020-03-28T17:29:08Z</time>
      </trkpt>
      <trkpt lat="43.55007" lon="1.47681">
        <ele>200.936</ele>
        <time>2020-03-28T17:29:14Z</time>
      </trkpt>
      <trkpt lat="43.55016" lon="1.47676">
        <ele>200.908</ele>
        <time>2020-03-28T17:29:20Z</time>
      </trkpt>
      <trkpt lat="43.55026" lon="1.47674">
        <ele>200.88</ele>
        <time>2020-03-28T17:29:26Z</time>
      </trkpt>
      <trkpt lat="43.55034" lon="1.47676">
        <ele>200.862</ele>
        <time>2020-03-28T17:29:32Z</time>
      </trkpt>
      <trkpt lat="43.55036" lon="1.4768">
        <ele>200.853</ele>
        <time>2020-03-28T17:29:37Z</time>
      </trkpt>
      <trkpt lat="43.55037" lon="1.4768">
        <ele>200.848</ele>
        <time>2020-03-28T17:29:43Z</time>
      </trkpt>
      <trkpt lat="43.55037" lon="1.4768">
        <ele>200.848</ele>
        <time>2020-03-28T17:29:48Z</time>
      </trkpt>
      <trkpt lat="43.55035" lon="1.47662">
        <ele>154.8</ele>
      </trkpt>
    </trkseg>
  </trk>
</gpx>